Archival Weather

Half Moon Bay

Half Moon Bay, California (KHAF)

Report from: Tuesday, September 19, 2023 5:55 PM PDT
Current time: Monday, June 17, 2024 4:13 AM PDT

Current weather – Weather history – Daily summaries
Weather forecast

Present weatherMist
Temperature16.0°C (60.8°F)
Dew point14.0°C (57.2°F)
Winds 7 kts (3.6 m/s, 8.1 mph) Northwest (310°)
Visibility2 mi. (3.2 km)
Clouds Ceiling: Broken clouds 1,200 ft. (366 m)
Altimeter29.92 in.Hg (1013 mB)
Relative humidity88 %
Density altitude341 ft. (104 m)
Remarks Fully automated report
Automated weather observing station with precipitation discriminator
Flight conditions Instrument Meteorological Conditions
Raw dataKHAF 200055Z AUTO 31007KT 2SM BR BKN012 16/14 A2992 RMK AO2
An error has occurred. This application may no longer respond until reloaded. Reload 🗙